Race profile

ABN-AMRO City-Pier-City
Den Haag NED
13 Mar 2011
Road
Half Mara
Record quality course
Men: -74.91 sec (-3.55 sec/km)
Women: -103.50 sec (-4.90 sec/km)
Men: 873
Women: 267
City-Pier-City Loop

Results (men)

Finished Time Flags Given name Surname Alternate name Citizenship Birth date Prize money Actions
1 59:37 Lelisa Desisa Benti ETH 14 Jan 1990
2 59:39 Azmiraw Bekele Molalign ETH 22 Jan 1986
3 59:40 Peter Kirui Cheruiyot KEN 02 Jan 1988
4 59:42 Ayele Abshiro Biza ETH 28 Dec 1990
5 59:44 Lucas Kimeli Rotich KEN 16 Apr 1990
6 1:00:01 James Kwambai Kipsang KEN 28 Feb 1983
7 1:00:26 Sammy Kitwara Kirop KEN 26 Nov 1986
8 1:01:02 Shadrack Kipchirchir Kemboi KEN 19 Feb 1986
9 1:01:03 Joseph Kiptoo Birech KEN 01 Apr 1984
10 1:01:19 Jairus Chanchima Ondoro KEN 05 Dec 1984
11 1:02:00 Francis Kosgei Kimutai KEN 1983
12 1:02:09 Koen Raymaekers NED 31 Jan 1980
13 1:03:17 Patrick Stitzinger NED 25 Aug 1981
14 1:03:39 Joseph Aperumoi Kachapin KEN 1990
15 1:03:57 Charles Kibet Chepkurui KEN 16 May 1991
16 1:03:59 Wilfred Kirwa Kigen KEN 21 Jan 1986
17 1:04:13 Michel Butter NED 05 Nov 1985
18 1:04:30 Dereje Gebrehiwot Tesfaye ETH 30 Sep 1985
19 1:04:43 Sammy Kiprono Kirui KEN 20 Dec 1987
20 1:04:49 Neil Renault ENG 30 Jul 1983
21 1:04:51 Ronald Schroer NED 28 Sep 1984
22 1:05:02 Asbjorn-Ellefsen Persen NOR 19 May 1987
23 1:05:43 Rolf Steier NOR 07 Jun 1984
24 1:05:44 Stefan VanDenBroek BEL 16 Sep 1972
25 1:05:45 Oystein Sylta NOR 03 Mar 1978
27 1:07:10 Jeppe Farsøht DEN 15 Sep 1978
31 1:08:41 Rens Dekkers NED 29 Nov 1981
32 1:08:49 Mareks Floroseks LAT 03 Apr 1986
39 1:09:22 Thomas Payn ENG 18 Oct 1979

Results (women)

Finished Time Flags Given name Surname Alternate name Citizenship Birth date Prize money Actions
1 1:09:06 Filomena Chepchirchir Mbote KEN 01 Dec 1981
2 1:10:30 Tsgereda Girma Ayele ETH 1995
3 1:11:50 Joyce Kandie KEN 29 May 1979
4 1:14:15 Lisa-Christina Nemec Stublic CRO 18 May 1984
5 1:14:24 Mariska Kramer Postma NED 26 Apr 1974
6 1:14:25 Kjersti-Karoline Danielsen NOR 15 Feb 1979
7 1:14:31 Christina-Bus Holth NOR 22 Apr 1980
8 1:16:19 Lindsay vanMarrewijk Poesiat NED 04 Feb 1983
9 1:17:52 Samantha Amend ENG 24 May 1979
10 1:18:13 Inge deJong NED 06 Jun 1976
13 1:20:46 Marlies Overbeeke NED 01 Nov 1980
14 1:21:32 Barbara Zutt Tesselaar NED 01 Nov 1981